Detall de PIREP

Printer-friendly versionPDF version

[2014/01/06 16:23:00]
Flight IATA:CT1004
Pilot Number:042
Company ICAO:CAT
Aircraft Type:MD11/E
PAX:140
Aircraft Registration:PAX
Departing Airport: LEVC
Destination Airport: LUKK
Alternate Airport:UKOO
Online: VATSIM
Route:ORVUS UM871 PTC UN851 TORTU UM858 GEN UM859 LUPOS UM859 BARPI UZ495 MAGAM UP735 ZAG UM986 KOPRY UY572 BAPGU UN978 BUSES
Flight Level:F350
No Slew and time accel
No pause
Crash detect
Detect pilot in Cockpit between each 30 and 45 minutes
16:23 Zero fuel Weight: 377797 Lbs, Fuel Weight: 171248 Lbs
16:23 VATSIM:LEVC 061600Z 25015KT CAVOK 20/05 Q1017 NOSIG
16:23 VATSIM:LUKK 061600Z 31006KT 5000 BR OVC011 06/03 Q1020 R26/CLRD65 NOSIG
16:23 VOICE CATALONIAN/X-MAS XARTER
16:30 Parking Brakes off
16:35 Take-off
16:35 Take off Weight: 547298 Lbs
16:35 Wind: 249º @ 015 Knots Heading: 293º
16:35 POS N39º 29´ 33´´ W000º 29´ 25´´
16:35 Gear Up: 178 Knots
16:35 Flaps:5 at 178 Knots
16:36 Flaps:4 at 192 Knots
16:36 Flaps:3 at 195 Knots
16:36 Flaps:2 at 198 Knots
16:36 Flaps:1 at 199 Knots
16:37 Flaps:0 at 241 Knots
16:50 Wind:239º@035 Knots Heading: 088º Ground Speed: 510 Knots Altitude 30236 ft
17:05 Wind:229º@038 Knots Heading: 060º Ground Speed: 509 Knots Altitude 33143 ft
17:20 Wind:046º@003 Knots Heading: 060º Ground Speed: 465 Knots Altitude 33188 ft
17:35 Wind:040º@003 Knots Heading: 022º Ground Speed: 486 Knots Altitude 33225 ft
17:38 TOC
17:38 Fuel Weight: 144444 Lb
17:50 Wind:299º@007 Knots Heading: 004º Ground Speed: 468 Knots Altitude 35213 ft
18:05 Wind:340º@026 Knots Heading: 083º Ground Speed: 475 Knots Altitude 35111 ft
18:20 Wind:118º@020 Knots Heading: 062º Ground Speed: 459 Knots Altitude 35239 ft
18:35 Wind:192º@010 Knots Heading: 076º Ground Speed: 469 Knots Altitude 35226 ft
18:35 Flaps:1 at 290 Knots
18:37 Flaps:0 at 198 Knots
18:37 TOD
18:37 Fuel Weight: 127794 Lb
18:41 TOC
18:41 Fuel Weight: 126468 Lb
18:50 Wind:245º@014 Knots Heading: 086º Ground Speed: 478 Knots Altitude 35252 ft
19:05 Wind:238º@012 Knots Heading: 076º Ground Speed: 474 Knots Altitude 35255 ft
19:20 Wind:098º@004 Knots Heading: 087º Ground Speed: 456 Knots Altitude 35229 ft
19:35 Wind:293º@013 Knots Heading: 089º Ground Speed: 473 Knots Altitude 35252 ft
19:35 TOD
19:35 Fuel Weight: 111712 Lb
19:48 Gear Down: 247 Knots
19:48 Gear Up: 246 Knots
19:48 Flaps:1 at 246 Knots
19:50 Wind:319º@019 Knots Heading: 118º Ground Speed: 268 Knots Altitude 8799 ft
19:58 Flaps:2 at 220 Knots
19:58 Flaps:3 at 220 Knots
20:05 Wind:319º@007 Knots Heading: 280º Ground Speed: 172 Knots Altitude 2542 ft
20:05 Flaps:4 at 174 Knots
20:05 Flaps:3 at 175 Knots
20:05 Flaps:4 at 174 Knots
20:05 Gear Down: 175 Knots
20:05 Flaps:5 at 175 Knots
20:05 Flaps:6 at 175 Knots
20:05 Flaps:5 at 174 Knots
20:05 Flaps:6 at 173 Knots
20:05 Flaps:7 at 174 Knots
20:05 Flaps:8 at 173 Knots
20:07 TouchDown:Rate -479 ft/min Speed: 156 Knots
20:07 VATSIM:LUKK 062000Z 32007KT 3500 BR OVC005 05/03 Q1021 R08/CLRD65 TEMPO 1500 OVC002
20:07 Land
20:07 Wind:319º@007 Knots
20:07 Heading: 263º
20:07 Flight Duration: 03:32
20:07 Landing Weight: 481859 Lbs
20:07 POS N46º 55´ 41´´ E028º 55´ 29´´
20:13 Parking brakes on
20:13 Block to Block Duration: 03:43
20:13 Final Fuel: 102872 Lbls
20:13 Spent Fuel: 68375 Lbls
20:13 Flight Length: 1438 NM
20:13 TOD Land Length: 160 NM

Exportar CSV

Powered by Drupal - Modified by Danger4k